Providence, Rhode Island
Traffic Map
Current Weather Conditions
Providence, Rhode Island
Few Clouds
Few Clouds

Feels Like: 3°
Wind Chill: Ceiling: Unl
Heat Index: Visibility: 10mi
Dew Point: -5° Wind: 9mph
Humidity: 47% Direction: 330° (NNW)
Pressure: 30.24in Gusts: 0mph
Raw Report DataKPVD 181751Z 33008KT 10SM FEW040 06/M05 A3024 RMK AO2 SLP239 4/003 933005 T00561050 10056 20006 53026
Traffic Incident Summary
Active as of:
Severity:
Category:
InformationThere was an issue retrieving the traffic information for this location. Please try a different location or try again shortly.
Advertisements